sensor_id;sensor_type;location;lat;lon;timestamp;P1;durP1;ratioP1;P2;durP2;ratioP2
58978;SDS011;44763;50.464;30.612;2022-10-14T00:01:08;26.90;;;18.67;;
58978;SDS011;44763;50.464;30.612;2022-10-14T00:03:39;28.03;;;19.17;;
58978;SDS011;44763;50.464;30.612;2022-10-14T00:06:07;28.50;;;19.17;;
58978;SDS011;44763;50.464;30.612;2022-10-14T00:08:38;31.23;;;19.50;;
58978;SDS011;44763;50.464;30.612;2022-10-14T00:11:12;28.97;;;19.30;;
58978;SDS011;44763;50.464;30.612;2022-10-14T00:13:44;27.70;;;19.33;;
58978;SDS011;44763;50.464;30.612;2022-10-14T00:16:15;27.60;;;19.30;;
58978;SDS011;44763;50.464;30.612;2022-10-14T00:19:05;27.57;;;19.20;;
58978;SDS011;44763;50.464;30.612;2022-10-14T00:21:32;26.40;;;18.27;;
58978;SDS011;44763;50.464;30.612;2022-10-14T00:24:01;26.70;;;19.43;;
58978;SDS011;44763;50.464;30.612;2022-10-14T00:26:28;27.80;;;19.27;;
58978;SDS011;44763;50.464;30.612;2022-10-14T00:29:01;29.23;;;20.63;;
58978;SDS011;44763;50.464;30.612;2022-10-14T00:31:30;26.40;;;18.73;;
58978;SDS011;44763;50.464;30.612;2022-10-14T00:33:57;27.33;;;18.77;;
58978;SDS011;44763;50.464;30.612;2022-10-14T00:38:51;27.77;;;19.55;;
58978;SDS011;44763;50.464;30.612;2022-10-14T00:41:20;23.00;;;17.17;;
58978;SDS011;44763;50.464;30.612;2022-10-14T00:43:58;25.93;;;17.53;;
58978;SDS011;44763;50.464;30.612;2022-10-14T00:46:31;28.27;;;17.73;;
58978;SDS011;44763;50.464;30.612;2022-10-14T00:52:05;27.60;;;17.92;;
58978;SDS011;44763;50.464;30.612;2022-10-14T00:54:40;24.27;;;16.80;;
58978;SDS011;44763;50.464;30.612;2022-10-14T00:57:17;26.13;;;18.20;;
58978;SDS011;44763;50.464;30.612;2022-10-14T00:59:45;23.17;;;17.60;;
58978;SDS011;44763;50.464;30.612;2022-10-14T01:02:12;29.40;;;18.97;;
58978;SDS011;44763;50.464;30.612;2022-10-14T01:04:39;30.40;;;18.90;;
58978;SDS011;44763;50.464;30.612;2022-10-14T01:07:17;27.43;;;18.37;;
58978;SDS011;44763;50.464;30.612;2022-10-14T01:12:44;25.17;;;17.93;;
58978;SDS011;44763;50.464;30.612;2022-10-14T01:21:14;31.30;;;17.97;;
58978;SDS011;44763;50.464;30.612;2022-10-14T01:26:52;32.83;;;22.53;;
58978;SDS011;44763;50.464;30.612;2022-10-14T01:32:33;27.80;;;19.67;;
58978;SDS011;44763;50.464;30.612;2022-10-14T01:35:13;33.43;;;19.53;;
58978;SDS011;44763;50.464;30.612;2022-10-14T01:37:58;38.27;;;19.60;;
58978;SDS011;44763;50.464;30.612;2022-10-14T01:40:32;28.43;;;19.03;;
58978;SDS011;44763;50.464;30.612;2022-10-14T01:43:05;34.27;;;20.23;;
58978;SDS011;44763;50.464;30.612;2022-10-14T01:45:34;29.63;;;19.60;;
58978;SDS011;44763;50.464;30.612;2022-10-14T01:48:03;44.20;;;29.90;;
58978;SDS011;44763;50.464;30.612;2022-10-14T01:50:32;41.83;;;29.53;;
58978;SDS011;44763;50.464;30.612;2022-10-14T01:53:08;40.53;;;30.67;;
58978;SDS011;44763;50.464;30.612;2022-10-14T01:55:42;44.27;;;30.67;;
58978;SDS011;44763;50.464;30.612;2022-10-14T01:58:13;42.60;;;29.37;;
58978;SDS011;44763;50.464;30.612;2022-10-14T02:00:42;38.97;;;27.73;;
58978;SDS011;44763;50.464;30.612;2022-10-14T02:03:14;37.07;;;24.80;;
58978;SDS011;44763;50.464;30.612;2022-10-14T02:05:44;30.47;;;21.60;;
58978;SDS011;44763;50.464;30.612;2022-10-14T02:08:35;32.93;;;22.13;;
58978;SDS011;44763;50.464;30.612;2022-10-14T02:11:13;30.53;;;23.47;;
58978;SDS011;44763;50.464;30.612;2022-10-14T02:13:49;31.95;;;23.73;;
58978;SDS011;44763;50.464;30.612;2022-10-14T02:19:37;33.23;;;23.47;;
58978;SDS011;44763;50.464;30.612;2022-10-14T02:22:13;30.93;;;22.83;;
58978;SDS011;44763;50.464;30.612;2022-10-14T02:24:58;31.20;;;19.92;;
58978;SDS011;44763;50.464;30.612;2022-10-14T02:27:31;32.10;;;21.27;;
58978;SDS011;44763;50.464;30.612;2022-10-14T02:30:02;34.10;;;21.50;;
58978;SDS011;44763;50.464;30.612;2022-10-14T02:32:32;24.60;;;18.43;;
58978;SDS011;44763;50.464;30.612;2022-10-14T02:35:00;31.57;;;20.33;;
58978;SDS011;44763;50.464;30.612;2022-10-14T02:37:29;25.27;;;19.23;;
58978;SDS011;44763;50.464;30.612;2022-10-14T02:40:06;32.03;;;19.00;;
58978;SDS011;44763;50.464;30.612;2022-10-14T02:42:43;25.90;;;18.90;;
58978;SDS011;44763;50.464;30.612;2022-10-14T02:45:09;32.15;;;17.25;;
58978;SDS011;44763;50.464;30.612;2022-10-14T02:47:37;24.43;;;16.27;;
58978;SDS011;44763;50.464;30.612;2022-10-14T02:50:04;25.47;;;17.03;;
58978;SDS011;44763;50.464;30.612;2022-10-14T02:52:32;24.93;;;17.03;;
58978;SDS011;44763;50.464;30.612;2022-10-14T02:54:59;27.87;;;18.30;;
58978;SDS011;44763;50.464;30.612;2022-10-14T02:57:26;26.60;;;17.15;;
58978;SDS011;44763;50.464;30.612;2022-10-14T02:59:54;24.97;;;16.63;;
58978;SDS011;44763;50.464;30.612;2022-10-14T03:02:22;28.50;;;17.43;;
58978;SDS011;44763;50.464;30.612;2022-10-14T03:04:48;28.90;;;17.65;;
58978;SDS011;44763;50.464;30.612;2022-10-14T03:07:15;29.67;;;18.20;;
58978;SDS011;44763;50.464;30.612;2022-10-14T03:09:43;26.50;;;17.33;;
58978;SDS011;44763;50.464;30.612;2022-10-14T03:12:09;30.75;;;17.05;;
58978;SDS011;44763;50.464;30.612;2022-10-14T03:14:35;26.25;;;17.27;;
58978;SDS011;44763;50.464;30.612;2022-10-14T03:17:04;27.97;;;18.97;;
58978;SDS011;44763;50.464;30.612;2022-10-14T03:19:33;24.53;;;18.03;;
58978;SDS011;44763;50.464;30.612;2022-10-14T03:22:00;26.03;;;18.60;;
58978;SDS011;44763;50.464;30.612;2022-10-14T03:24:26;23.50;;;17.73;;
58978;SDS011;44763;50.464;30.612;2022-10-14T03:27:00;32.77;;;16.33;;
58978;SDS011;44763;50.464;30.612;2022-10-14T03:29:26;23.47;;;17.87;;
58978;SDS011;44763;50.464;30.612;2022-10-14T03:32:01;26.53;;;19.37;;
58978;SDS011;44763;50.464;30.612;2022-10-14T03:34:33;29.50;;;18.57;;
58978;SDS011;44763;50.464;30.612;2022-10-14T03:37:03;27.70;;;17.20;;
58978;SDS011;44763;50.464;30.612;2022-10-14T03:39:31;29.70;;;18.00;;
58978;SDS011;44763;50.464;30.612;2022-10-14T03:41:59;28.73;;;18.57;;
58978;SDS011;44763;50.464;30.612;2022-10-14T03:44:27;28.10;;;18.33;;
58978;SDS011;44763;50.464;30.612;2022-10-14T03:47:12;26.13;;;17.63;;
58978;SDS011;44763;50.464;30.612;2022-10-14T03:49:38;23.57;;;17.43;;
58978;SDS011;44763;50.464;30.612;2022-10-14T03:52:08;29.67;;;17.77;;
58978;SDS011;44763;50.464;30.612;2022-10-14T03:54:34;24.30;;;16.17;;
58978;SDS011;44763;50.464;30.612;2022-10-14T03:57:00;25.90;;;17.85;;
58978;SDS011;44763;50.464;30.612;2022-10-14T03:59:28;32.37;;;18.73;;
58978;SDS011;44763;50.464;30.612;2022-10-14T04:01:56;32.13;;;18.53;;
58978;SDS011;44763;50.464;30.612;2022-10-14T04:04:23;26.43;;;18.60;;
58978;SDS011;44763;50.464;30.612;2022-10-14T04:06:50;22.77;;;16.57;;
58978;SDS011;44763;50.464;30.612;2022-10-14T04:09:18;24.30;;;17.43;;
58978;SDS011;44763;50.464;30.612;2022-10-14T04:11:44;25.68;;;17.20;;
58978;SDS011;44763;50.464;30.612;2022-10-14T04:14:14;25.80;;;16.97;;
58978;SDS011;44763;50.464;30.612;2022-10-14T04:16:43;25.43;;;16.77;;
58978;SDS011;44763;50.464;30.612;2022-10-14T04:19:11;28.30;;;18.07;;
58978;SDS011;44763;50.464;30.612;2022-10-14T04:21:38;26.57;;;18.97;;
58978;SDS011;44763;50.464;30.612;2022-10-14T04:24:06;24.97;;;16.43;;
58978;SDS011;44763;50.464;30.612;2022-10-14T04:26:37;23.63;;;14.97;;
58978;SDS011;44763;50.464;30.612;2022-10-14T04:29:05;25.67;;;16.93;;
58978;SDS011;44763;50.464;30.612;2022-10-14T04:31:34;25.47;;;16.17;;
58978;SDS011;44763;50.464;30.612;2022-10-14T04:34:01;24.23;;;16.80;;
58978;SDS011;44763;50.464;30.612;2022-10-14T04:36:29;25.43;;;17.33;;
58978;SDS011;44763;50.464;30.612;2022-10-14T04:38:56;28.13;;;16.77;;
58978;SDS011;44763;50.464;30.612;2022-10-14T04:43:49;30.17;;;18.70;;
58978;SDS011;44763;50.464;30.612;2022-10-14T04:46:17;27.73;;;18.30;;
58978;SDS011;44763;50.464;30.612;2022-10-14T04:48:45;26.27;;;19.07;;
58978;SDS011;44763;50.464;30.612;2022-10-14T04:51:13;30.40;;;18.70;;
58978;SDS011;44763;50.464;30.612;2022-10-14T04:53:41;29.97;;;19.60;;
58978;SDS011;44763;50.464;30.612;2022-10-14T04:56:14;28.87;;;20.00;;
58978;SDS011;44763;50.464;30.612;2022-10-14T04:58:42;36.67;;;20.67;;
58978;SDS011;44763;50.464;30.612;2022-10-14T05:01:08;32.03;;;22.77;;
58978;SDS011;44763;50.464;30.612;2022-10-14T05:03:37;35.17;;;22.90;;
58978;SDS011;44763;50.464;30.612;2022-10-14T05:06:03;32.63;;;22.50;;
58978;SDS011;44763;50.464;30.612;2022-10-14T05:08:30;36.50;;;23.90;;
58978;SDS011;44763;50.464;30.612;2022-10-14T05:10:59;39.20;;;23.47;;
58978;SDS011;44763;50.464;30.612;2022-10-14T05:13:33;28.30;;;22.50;;
58978;SDS011;44763;50.464;30.612;2022-10-14T05:16:03;39.83;;;25.40;;
58978;SDS011;44763;50.464;30.612;2022-10-14T05:18:30;35.87;;;24.80;;
58978;SDS011;44763;50.464;30.612;2022-10-14T05:20:58;35.17;;;24.53;;
58978;SDS011;44763;50.464;30.612;2022-10-14T05:23:27;33.30;;;24.17;;
58978;SDS011;44763;50.464;30.612;2022-10-14T05:25:57;37.33;;;26.00;;
58978;SDS011;44763;50.464;30.612;2022-10-14T05:28:25;37.37;;;24.20;;
58978;SDS011;44763;50.464;30.612;2022-10-14T05:33:18;35.23;;;23.37;;
58978;SDS011;44763;50.464;30.612;2022-10-14T05:35:45;38.13;;;24.63;;
58978;SDS011;44763;50.464;30.612;2022-10-14T05:38:12;29.30;;;21.87;;
58978;SDS011;44763;50.464;30.612;2022-10-14T05:40:41;30.13;;;23.27;;
58978;SDS011;44763;50.464;30.612;2022-10-14T05:43:10;33.80;;;25.47;;
58978;SDS011;44763;50.464;30.612;2022-10-14T05:45:38;31.53;;;24.33;;
58978;SDS011;44763;50.464;30.612;2022-10-14T05:48:04;33.63;;;25.43;;
58978;SDS011;44763;50.464;30.612;2022-10-14T05:50:31;31.43;;;23.07;;
58978;SDS011;44763;50.464;30.612;2022-10-14T05:53:00;36.27;;;23.90;;
58978;SDS011;44763;50.464;30.612;2022-10-14T05:55:28;29.83;;;23.13;;
58978;SDS011;44763;50.464;30.612;2022-10-14T05:57:56;31.27;;;24.37;;
58978;SDS011;44763;50.464;30.612;2022-10-14T06:00:25;29.90;;;23.77;;
58978;SDS011;44763;50.464;30.612;2022-10-14T06:02:52;32.43;;;24.20;;
58978;SDS011;44763;50.464;30.612;2022-10-14T06:05:18;38.60;;;24.63;;
58978;SDS011;44763;50.464;30.612;2022-10-14T06:07:44;42.05;;;25.97;;
58978;SDS011;44763;50.464;30.612;2022-10-14T06:10:10;48.38;;;26.87;;
58978;SDS011;44763;50.464;30.612;2022-10-14T06:12:38;43.00;;;28.10;;
58978;SDS011;44763;50.464;30.612;2022-10-14T06:15:05;38.77;;;24.90;;
58978;SDS011;44763;50.464;30.612;2022-10-14T06:17:33;35.30;;;21.70;;
58978;SDS011;44763;50.464;30.612;2022-10-14T06:20:00;28.93;;;22.43;;
58978;SDS011;44763;50.464;30.612;2022-10-14T06:22:27;29.60;;;21.83;;
58978;SDS011;44763;50.464;30.612;2022-10-14T06:24:53;37.35;;;22.90;;
58978;SDS011;44763;50.464;30.612;2022-10-14T06:27:20;33.33;;;23.40;;
58978;SDS011;44763;50.464;30.612;2022-10-14T06:29:47;34.40;;;22.70;;
58978;SDS011;44763;50.464;30.612;2022-10-14T06:32:13;34.25;;;24.52;;
58978;SDS011;44763;50.464;30.612;2022-10-14T06:34:40;31.00;;;21.70;;
58978;SDS011;44763;50.464;30.612;2022-10-14T06:37:07;30.53;;;22.80;;
58978;SDS011;44763;50.464;30.612;2022-10-14T06:39:33;33.90;;;22.80;;
58978;SDS011;44763;50.464;30.612;2022-10-14T06:42:00;36.45;;;25.35;;
58978;SDS011;44763;50.464;30.612;2022-10-14T06:44:29;36.60;;;24.80;;
58978;SDS011;44763;50.464;30.612;2022-10-14T06:46:55;34.48;;;24.65;;
58978;SDS011;44763;50.464;30.612;2022-10-14T06:49:21;36.45;;;25.68;;
58978;SDS011;44763;50.464;30.612;2022-10-14T06:51:47;39.80;;;25.80;;
58978;SDS011;44763;50.464;30.612;2022-10-14T06:54:15;33.37;;;24.03;;
58978;SDS011;44763;50.464;30.612;2022-10-14T06:59:08;28.83;;;21.63;;
58978;SDS011;44763;50.464;30.612;2022-10-14T07:04:02;34.87;;;22.67;;
58978;SDS011;44763;50.464;30.612;2022-10-14T07:06:29;27.23;;;19.40;;
58978;SDS011;44763;50.464;30.612;2022-10-14T07:08:56;24.80;;;16.47;;
58978;SDS011;44763;50.464;30.612;2022-10-14T07:11:23;23.07;;;15.97;;
58978;SDS011;44763;50.464;30.612;2022-10-14T07:13:51;21.17;;;13.90;;
58978;SDS011;44763;50.464;30.612;2022-10-14T07:16:21;15.57;;;12.70;;
58978;SDS011;44763;50.464;30.612;2022-10-14T07:18:48;17.83;;;12.67;;
58978;SDS011;44763;50.464;30.612;2022-10-14T07:21:14;17.15;;;13.28;;
58978;SDS011;44763;50.464;30.612;2022-10-14T07:23:41;34.00;;;15.70;;
58978;SDS011;44763;50.464;30.612;2022-10-14T07:26:07;19.10;;;13.38;;
58978;SDS011;44763;50.464;30.612;2022-10-14T07:28:34;16.40;;;13.70;;
58978;SDS011;44763;50.464;30.612;2022-10-14T07:33:35;26.60;;;14.47;;
58978;SDS011;44763;50.464;30.612;2022-10-14T07:36:04;23.62;;;16.00;;
58978;SDS011;44763;50.464;30.612;2022-10-14T07:38:34;24.63;;;14.43;;
58978;SDS011;44763;50.464;30.612;2022-10-14T07:41:03;22.32;;;13.93;;
58978;SDS011;44763;50.464;30.612;2022-10-14T07:43:44;24.90;;;14.23;;
58978;SDS011;44763;50.464;30.612;2022-10-14T07:46:14;21.70;;;14.38;;
58978;SDS011;44763;50.464;30.612;2022-10-14T07:48:45;19.02;;;12.73;;
58978;SDS011;44763;50.464;30.612;2022-10-14T07:53:38;25.40;;;12.40;;
58978;SDS011;44763;50.464;30.612;2022-10-14T07:56:04;22.98;;;13.15;;
58978;SDS011;44763;50.464;30.612;2022-10-14T08:00:57;20.48;;;13.68;;
58978;SDS011;44763;50.464;30.612;2022-10-14T08:03:24;18.05;;;10.95;;
58978;SDS011;44763;50.464;30.612;2022-10-14T08:06:01;15.98;;;10.03;;
58978;SDS011;44763;50.464;30.612;2022-10-14T08:08:29;16.90;;;11.00;;
58978;SDS011;44763;50.464;30.612;2022-10-14T08:11:07;14.75;;;10.82;;
58978;SDS011;44763;50.464;30.612;2022-10-14T08:13:39;13.40;;;9.68;;
58978;SDS011;44763;50.464;30.612;2022-10-14T08:16:14;10.72;;;7.55;;
58978;SDS011;44763;50.464;30.612;2022-10-14T08:18:48;15.10;;;8.58;;
58978;SDS011;44763;50.464;30.612;2022-10-14T08:21:16;11.03;;;7.60;;
58978;SDS011;44763;50.464;30.612;2022-10-14T08:23:43;16.65;;;9.25;;
58978;SDS011;44763;50.464;30.612;2022-10-14T08:26:29;12.25;;;8.95;;
58978;SDS011;44763;50.464;30.612;2022-10-14T08:28:58;13.75;;;8.05;;
58978;SDS011;44763;50.464;30.612;2022-10-14T08:31:32;15.32;;;8.98;;
58978;SDS011;44763;50.464;30.612;2022-10-14T08:33:59;9.33;;;8.03;;
58978;SDS011;44763;50.464;30.612;2022-10-14T08:36:25;13.62;;;9.23;;
58978;SDS011;44763;50.464;30.612;2022-10-14T08:38:53;8.90;;;8.05;;
58978;SDS011;44763;50.464;30.612;2022-10-14T08:42:25;13.15;;;7.90;;
58978;SDS011;44763;50.464;30.612;2022-10-14T08:44:19;14.98;;;7.28;;
58978;SDS011;44763;50.464;30.612;2022-10-14T08:46:59;9.20;;;6.60;;
58978;SDS011;44763;50.464;30.612;2022-10-14T08:49:34;15.98;;;7.62;;
58978;SDS011;44763;50.464;30.612;2022-10-14T08:52:10;10.23;;;5.17;;
58978;SDS011;44763;50.464;30.612;2022-10-14T08:54:45;10.58;;;6.50;;
58978;SDS011;44763;50.464;30.612;2022-10-14T08:57:20;10.75;;;7.17;;
58978;SDS011;44763;50.464;30.612;2022-10-14T08:59:53;10.45;;;5.78;;
58978;SDS011;44763;50.464;30.612;2022-10-14T09:05:12;9.40;;;6.92;;
58978;SDS011;44763;50.464;30.612;2022-10-14T09:07:52;13.55;;;7.80;;
58978;SDS011;44763;50.464;30.612;2022-10-14T09:10:36;12.40;;;7.15;;
58978;SDS011;44763;50.464;30.612;2022-10-14T09:13:10;9.90;;;6.92;;
58978;SDS011;44763;50.464;30.612;2022-10-14T09:15:47;13.75;;;6.83;;
58978;SDS011;44763;50.464;30.612;2022-10-14T09:18:23;13.20;;;7.30;;
58978;SDS011;44763;50.464;30.612;2022-10-14T09:24:13;8.40;;;5.65;;
58978;SDS011;44763;50.464;30.612;2022-10-14T09:26:53;14.80;;;5.58;;
58978;SDS011;44763;50.464;30.612;2022-10-14T09:29:32;6.95;;;4.78;;
58978;SDS011;44763;50.464;30.612;2022-10-14T09:32:07;10.05;;;4.80;;
58978;SDS011;44763;50.464;30.612;2022-10-14T09:34:52;8.05;;;4.67;;
58978;SDS011;44763;50.464;30.612;2022-10-14T09:37:22;10.55;;;7.00;;
58978;SDS011;44763;50.464;30.612;2022-10-14T09:39:58;10.38;;;5.22;;
58978;SDS011;44763;50.464;30.612;2022-10-14T09:42:39;7.67;;;4.78;;
58978;SDS011;44763;50.464;30.612;2022-10-14T09:45:25;7.40;;;5.70;;
58978;SDS011;44763;50.464;30.612;2022-10-14T09:47:55;8.98;;;5.08;;
58978;SDS011;44763;50.464;30.612;2022-10-14T09:50:32;7.03;;;5.28;;
58978;SDS011;44763;50.464;30.612;2022-10-14T09:56:24;11.12;;;6.00;;
58978;SDS011;44763;50.464;30.612;2022-10-14T09:59:02;7.92;;;5.78;;
58978;SDS011;44763;50.464;30.612;2022-10-14T10:01:36;7.20;;;5.40;;
58978;SDS011;44763;50.464;30.612;2022-10-14T10:04:49;7.50;;;4.37;;
58978;SDS011;44763;50.464;30.612;2022-10-14T10:07:00;7.87;;;5.20;;
58978;SDS011;44763;50.464;30.612;2022-10-14T10:09:31;7.03;;;4.55;;
58978;SDS011;44763;50.464;30.612;2022-10-14T10:12:10;7.15;;;3.87;;
58978;SDS011;44763;50.464;30.612;2022-10-14T10:14:41;6.80;;;4.25;;
58978;SDS011;44763;50.464;30.612;2022-10-14T10:17:17;3.77;;;3.12;;
58978;SDS011;44763;50.464;30.612;2022-10-14T10:19:45;3.47;;;3.10;;
58978;SDS011;44763;50.464;30.612;2022-10-14T10:22:27;7.53;;;3.47;;
58978;SDS011;44763;50.464;30.612;2022-10-14T10:25:15;8.95;;;3.85;;
58978;SDS011;44763;50.464;30.612;2022-10-14T10:27:37;6.58;;;3.37;;
58978;SDS011;44763;50.464;30.612;2022-10-14T10:38:45;5.37;;;3.75;;
58978;SDS011;44763;50.464;30.612;2022-10-14T10:44:20;5.85;;;3.25;;
58978;SDS011;44763;50.464;30.612;2022-10-14T10:50:00;4.83;;;3.12;;
58978;SDS011;44763;50.464;30.612;2022-10-14T10:55:37;3.50;;;1.67;;
58978;SDS011;44763;50.464;30.612;2022-10-14T11:01:31;6.37;;;3.42;;
58978;SDS011;44763;50.464;30.612;2022-10-14T11:16:14;3.50;;;2.12;;
58978;SDS011;44763;50.464;30.612;2022-10-14T11:21:28;3.90;;;2.47;;
58978;SDS011;44763;50.464;30.612;2022-10-14T11:41:16;2.37;;;1.57;;
58978;SDS011;44763;50.464;30.612;2022-10-14T11:44:08;3.52;;;1.45;;
58978;SDS011;44763;50.464;30.612;2022-10-14T11:46:38;2.60;;;1.85;;
58978;SDS011;44763;50.464;30.612;2022-10-14T11:51:59;2.87;;;1.75;;
58978;SDS011;44763;50.464;30.612;2022-10-14T11:57:22;5.05;;;1.65;;
58978;SDS011;44763;50.464;30.612;2022-10-14T12:02:49;5.10;;;1.67;;
58978;SDS011;44763;50.464;30.612;2022-10-14T12:05:40;2.10;;;1.82;;
58978;SDS011;44763;50.464;30.612;2022-10-14T12:08:38;2.42;;;1.47;;
58978;SDS011;44763;50.464;30.612;2022-10-14T12:11:39;0.98;;;0.90;;
58978;SDS011;44763;50.464;30.612;2022-10-14T12:14:15;4.85;;;2.30;;
58978;SDS011;44763;50.464;30.612;2022-10-14T12:17:06;4.00;;;1.82;;
58978;SDS011;44763;50.464;30.612;2022-10-14T12:19:45;4.90;;;2.27;;
58978;SDS011;44763;50.464;30.612;2022-10-14T12:22:23;2.80;;;2.08;;
58978;SDS011;44763;50.464;30.612;2022-10-14T12:24:54;3.27;;;2.02;;
58978;SDS011;44763;50.464;30.612;2022-10-14T12:27:24;3.37;;;1.67;;
58978;SDS011;44763;50.464;30.612;2022-10-14T12:29:54;5.47;;;1.47;;
58978;SDS011;44763;50.464;30.612;2022-10-14T12:32:26;2.27;;;1.80;;
58978;SDS011;44763;50.464;30.612;2022-10-14T12:35:01;2.90;;;1.70;;
58978;SDS011;44763;50.464;30.612;2022-10-14T12:47:46;4.17;;;2.30;;
58978;SDS011;44763;50.464;30.612;2022-10-14T12:52:54;3.02;;;1.40;;
58978;SDS011;44763;50.464;30.612;2022-10-14T12:55:21;5.47;;;1.37;;
58978;SDS011;44763;50.464;30.612;2022-10-14T12:57:51;4.78;;;1.62;;
58978;SDS011;44763;50.464;30.612;2022-10-14T13:03:01;5.75;;;3.40;;
58978;SDS011;44763;50.464;30.612;2022-10-14T13:11:08;2.20;;;1.52;;
58978;SDS011;44763;50.464;30.612;2022-10-14T13:18:52;4.65;;;2.72;;
58978;SDS011;44763;50.464;30.612;2022-10-14T13:24:22;4.67;;;1.30;;
58978;SDS011;44763;50.464;30.612;2022-10-14T13:32:39;3.42;;;1.70;;
58978;SDS011;44763;50.464;30.612;2022-10-14T13:37:57;3.65;;;1.82;;
58978;SDS011;44763;50.464;30.612;2022-10-14T13:43:05;8.20;;;2.70;;
58978;SDS011;44763;50.464;30.612;2022-10-14T13:46:06;3.35;;;1.40;;
58978;SDS011;44763;50.464;30.612;2022-10-14T13:48:42;3.52;;;1.27;;
58978;SDS011;44763;50.464;30.612;2022-10-14T13:53:55;2.58;;;1.47;;
58978;SDS011;44763;50.464;30.612;2022-10-14T13:58:56;5.03;;;2.20;;
58978;SDS011;44763;50.464;30.612;2022-10-14T14:01:26;2.33;;;1.37;;
58978;SDS011;44763;50.464;30.612;2022-10-14T14:04:01;1.67;;;1.40;;
58978;SDS011;44763;50.464;30.612;2022-10-14T14:06:27;1.62;;;1.12;;
58978;SDS011;44763;50.464;30.612;2022-10-14T14:08:56;2.08;;;1.42;;
58978;SDS011;44763;50.464;30.612;2022-10-14T14:11:26;3.87;;;1.55;;
58978;SDS011;44763;50.464;30.612;2022-10-14T14:13:57;5.35;;;1.75;;
58978;SDS011;44763;50.464;30.612;2022-10-14T14:16:40;4.85;;;1.65;;
58978;SDS011;44763;50.464;30.612;2022-10-14T14:19:17;3.67;;;1.95;;
58978;SDS011;44763;50.464;30.612;2022-10-14T14:21:48;2.62;;;1.27;;
58978;SDS011;44763;50.464;30.612;2022-10-14T14:24:15;8.60;;;2.08;;
58978;SDS011;44763;50.464;30.612;2022-10-14T14:26:55;2.72;;;1.70;;
58978;SDS011;44763;50.464;30.612;2022-10-14T14:29:24;5.20;;;1.37;;
58978;SDS011;44763;50.464;30.612;2022-10-14T14:31:57;2.15;;;1.40;;
58978;SDS011;44763;50.464;30.612;2022-10-14T14:34:25;2.05;;;1.00;;
58978;SDS011;44763;50.464;30.612;2022-10-14T14:36:52;1.60;;;0.68;;
58978;SDS011;44763;50.464;30.612;2022-10-14T14:39:26;2.62;;;1.30;;
58978;SDS011;44763;50.464;30.612;2022-10-14T14:41:58;1.87;;;1.02;;
58978;SDS011;44763;50.464;30.612;2022-10-14T14:44:27;2.62;;;1.42;;
58978;SDS011;44763;50.464;30.612;2022-10-14T14:46:58;6.85;;;2.45;;
58978;SDS011;44763;50.464;30.612;2022-10-14T14:49:30;3.37;;;1.98;;
58978;SDS011;44763;50.464;30.612;2022-10-14T14:52:02;2.27;;;1.82;;
58978;SDS011;44763;50.464;30.612;2022-10-14T14:54:31;9.43;;;2.87;;
58978;SDS011;44763;50.464;30.612;2022-10-14T14:57:02;5.87;;;2.33;;
58978;SDS011;44763;50.464;30.612;2022-10-14T14:59:35;3.65;;;2.10;;
58978;SDS011;44763;50.464;30.612;2022-10-14T15:02:14;10.80;;;2.58;;
58978;SDS011;44763;50.464;30.612;2022-10-14T15:04:57;3.00;;;2.00;;
58978;SDS011;44763;50.464;30.612;2022-10-14T15:07:34;6.05;;;2.37;;
58978;SDS011;44763;50.464;30.612;2022-10-14T15:10:02;5.17;;;3.20;;
58978;SDS011;44763;50.464;30.612;2022-10-14T15:12:36;3.58;;;2.27;;
58978;SDS011;44763;50.464;30.612;2022-10-14T15:15:21;3.87;;;2.55;;
58978;SDS011;44763;50.464;30.612;2022-10-14T15:18:37;6.60;;;3.08;;
58978;SDS011;44763;50.464;30.612;2022-10-14T15:20:43;7.22;;;2.62;;
58978;SDS011;44763;50.464;30.612;2022-10-14T15:26:31;4.92;;;2.90;;
58978;SDS011;44763;50.464;30.612;2022-10-14T15:31:38;8.58;;;3.05;;
58978;SDS011;44763;50.464;30.612;2022-10-14T15:34:18;7.08;;;3.12;;
58978;SDS011;44763;50.464;30.612;2022-10-14T15:36:42;4.62;;;3.37;;
58978;SDS011;44763;50.464;30.612;2022-10-14T15:39:11;5.73;;;3.00;;
58978;SDS011;44763;50.464;30.612;2022-10-14T15:41:43;5.70;;;3.10;;
58978;SDS011;44763;50.464;30.612;2022-10-14T15:44:09;10.93;;;3.90;;
58978;SDS011;44763;50.464;30.612;2022-10-14T15:46:36;6.97;;;3.53;;
58978;SDS011;44763;50.464;30.612;2022-10-14T15:49:28;7.62;;;4.30;;
58978;SDS011;44763;50.464;30.612;2022-10-14T15:51:57;7.45;;;4.15;;
58978;SDS011;44763;50.464;30.612;2022-10-14T15:54:23;13.78;;;6.40;;
58978;SDS011;44763;50.464;30.612;2022-10-14T15:56:53;8.43;;;6.17;;
58978;SDS011;44763;50.464;30.612;2022-10-14T15:59:21;5.93;;;5.33;;
58978;SDS011;44763;50.464;30.612;2022-10-14T16:01:48;6.92;;;5.87;;
58978;SDS011;44763;50.464;30.612;2022-10-14T16:04:22;11.97;;;5.50;;
58978;SDS011;44763;50.464;30.612;2022-10-14T16:06:53;10.07;;;5.93;;
58978;SDS011;44763;50.464;30.612;2022-10-14T16:09:22;10.17;;;6.13;;
58978;SDS011;44763;50.464;30.612;2022-10-14T16:11:52;10.63;;;5.07;;
58978;SDS011;44763;50.464;30.612;2022-10-14T16:14:24;7.23;;;5.10;;
58978;SDS011;44763;50.464;30.612;2022-10-14T16:16:53;5.60;;;5.03;;
58978;SDS011;44763;50.464;30.612;2022-10-14T16:19:19;8.18;;;7.20;;
58978;SDS011;44763;50.464;30.612;2022-10-14T16:21:46;13.43;;;6.73;;
58978;SDS011;44763;50.464;30.612;2022-10-14T16:24:15;6.93;;;4.93;;
58978;SDS011;44763;50.464;30.612;2022-10-14T16:26:45;13.23;;;5.87;;
58978;SDS011;44763;50.464;30.612;2022-10-14T16:29:16;10.70;;;5.80;;
58978;SDS011;44763;50.464;30.612;2022-10-14T16:31:45;9.97;;;6.73;;
58978;SDS011;44763;50.464;30.612;2022-10-14T16:34:15;13.67;;;7.67;;
58978;SDS011;44763;50.464;30.612;2022-10-14T16:36:47;14.83;;;7.93;;
58978;SDS011;44763;50.464;30.612;2022-10-14T16:39:15;10.90;;;6.83;;
58978;SDS011;44763;50.464;30.612;2022-10-14T16:41:43;12.20;;;7.57;;
58978;SDS011;44763;50.464;30.612;2022-10-14T16:44:11;17.10;;;9.13;;
58978;SDS011;44763;50.464;30.612;2022-10-14T16:46:39;12.53;;;8.83;;
58978;SDS011;44763;50.464;30.612;2022-10-14T16:49:25;12.53;;;8.23;;
58978;SDS011;44763;50.464;30.612;2022-10-14T16:51:51;10.90;;;8.63;;
58978;SDS011;44763;50.464;30.612;2022-10-14T16:54:18;15.13;;;9.83;;
58978;SDS011;44763;50.464;30.612;2022-10-14T16:56:44;13.73;;;9.67;;
58978;SDS011;44763;50.464;30.612;2022-10-14T16:59:17;19.43;;;9.20;;
58978;SDS011;44763;50.464;30.612;2022-10-14T17:01:48;15.17;;;10.20;;
58978;SDS011;44763;50.464;30.612;2022-10-14T17:04:17;14.17;;;9.57;;
58978;SDS011;44763;50.464;30.612;2022-10-14T17:06:46;29.33;;;12.07;;
58978;SDS011;44763;50.464;30.612;2022-10-14T17:09:14;24.90;;;14.43;;
58978;SDS011;44763;50.464;30.612;2022-10-14T17:11:44;21.90;;;12.77;;
58978;SDS011;44763;50.464;30.612;2022-10-14T17:14:12;11.93;;;9.43;;
58978;SDS011;44763;50.464;30.612;2022-10-14T17:16:42;12.40;;;9.43;;
58978;SDS011;44763;50.464;30.612;2022-10-14T17:19:10;16.43;;;8.57;;
58978;SDS011;44763;50.464;30.612;2022-10-14T17:21:37;12.33;;;8.75;;
58978;SDS011;44763;50.464;30.612;2022-10-14T17:24:06;11.10;;;7.73;;
58978;SDS011;44763;50.464;30.612;2022-10-14T17:26:33;15.93;;;8.53;;